PWSweather.com
Personal Weather Stations
Station Observations
ARECO747
Argentina , San Antonio ArecoAR Bs.As

Argentina San Antonio ArecoAR Bs.As

Lat: -34.24447275818, Lon: -59.47654187679

Elevation: 102

Station Type: InformaciĆ³n generada con nuevo Microchip Ethernet conectado a estaciĆ³n WH1081

http://www.meteostar.com.ar

High Low Average
Temperature 77.9°F25.5°C 59.0°F15.0°C 66.0°F18.9°C
Dew Point 59.2°F15.1°C 46.4°F8.0°C 54.7°F12.6°C
Winds 14.5 mph 23.3 kmh Calm Calm 6.0 mph SSW9.7 kmh SSW
Wind Gusts 28.2 mph45.4 kmh -- 11.0 mph17.7 kmh
Humidity 82% 45% 68%
Pressure 29.96 in1014.6 mb 29.39 in995.3 mb -
Precipitation 0.91 in23.1 mm - -
Hour Temp Dew Point Humidity Winds Wind Gusts Pressure Precip Precip Rate Daily Precip Total
12:00 AM 59.4°F15.2°C 53.6°F12.0°C 81% 7.6 mph E12.2 kmh E 13.6 mph21.9 kmh 29.46 in997.6 mb 0.26 in6.6 mm 0.00 in0.0 mm 0.26 in6.6 mm
12:05 AM 59.4°F15.2°C 53.6°F12.0°C 81% 9.2 mph SE14.8 kmh SE 17.4 mph28.0 kmh 29.42 in996.3 mb 0.27 in6.9 mm 0.12 in3.0 mm 0.02 in0.5 mm
12:11 AM 59.0°F15.0°C 53.2°F11.8°C 81% 12.1 mph E19.5 kmh E 19.7 mph31.7 kmh 29.39 in995.3 mb 0.28 in7.1 mm 0.10 in2.5 mm 0.03 in0.8 mm
12:16 AM 59.0°F15.0°C 53.2°F11.8°C 81% 9.8 mph NE15.8 kmh NE 16.8 mph27.0 kmh 29.42 in996.3 mb 0.28 in7.1 mm 0.00 in0.0 mm 0.03 in0.8 mm
12:21 AM 59.2°F15.1°C 53.4°F11.9°C 81% 3.8 mph E6.1 kmh E 15.2 mph24.5 kmh 29.48 in998.3 mb 0.30 in7.6 mm 0.24 in6.1 mm 0.04 in1.0 mm
12:26 AM 59.4°F15.2°C 53.6°F12.0°C 81% 2.2 mph NW3.5 kmh NW 9.8 mph15.8 kmh 29.55 in1000.7 mb 0.30 in7.6 mm 0.00 in0.0 mm 0.04 in1.0 mm
12:31 AM 59.5°F15.3°C 53.8°F12.1°C 81% 2.2 mph WNW3.5 kmh WNW 5.4 mph8.7 kmh 29.55 in1000.7 mb 0.27 in6.9 mm 0.00 in0.0 mm 0.06 in1.5 mm
12:36 AM 59.5°F15.3°C 53.8°F12.1°C 81% 2.2 mph E3.5 kmh E 3.8 mph6.1 kmh 29.54 in1000.3 mb 0.30 in7.6 mm 0.36 in9.1 mm 0.09 in2.3 mm
12:42 AM 59.5°F15.3°C 53.8°F12.1°C 81% 6.0 mph SE9.7 kmh SE 7.6 mph12.2 kmh 29.49 in998.6 mb 0.26 in6.6 mm 0.00 in0.0 mm 0.16 in4.1 mm
12:47 AM 59.5°F15.3°C 53.8°F12.1°C 81% 3.8 mph NE6.1 kmh NE 9.2 mph14.8 kmh 29.48 in998.3 mb 0.27 in6.9 mm 0.12 in3.0 mm 0.19 in4.8 mm
12:52 AM 59.7°F15.4°C 54.0°F12.2°C 81% 2.2 mph NE3.5 kmh NE 12.1 mph19.5 kmh 29.52 in999.7 mb 0.24 in6.1 mm 0.00 in0.0 mm 0.20 in5.1 mm
12:57 AM 59.9°F15.5°C 54.1°F12.3°C 81% 6.0 mph SW9.7 kmh SW 9.2 mph14.8 kmh 29.56 in1001.0 mb 0.23 in5.8 mm 0.00 in0.0 mm 0.22 in5.6 mm
01:02 AM 59.9°F15.5°C 54.1°F12.3°C 81% 3.8 mph W6.1 kmh W 8.3 mph13.4 kmh 29.59 in1002.0 mb 0.23 in5.8 mm 0.00 in0.0 mm 0.23 in5.8 mm
01:08 AM 59.9°F15.5°C 54.1°F12.3°C 81% Calm Calm 6.0 mph9.7 kmh 29.59 in1002.0 mb 0.24 in6.1 mm 0.10 in2.5 mm 0.27 in6.9 mm
01:13 AM 59.9°F15.5°C 54.1°F12.3°C 81% 2.2 mph NE3.5 kmh NE 3.8 mph6.1 kmh 29.58 in1001.7 mb 0.27 in6.9 mm 0.36 in9.1 mm 0.30 in7.6 mm
01:18 AM 60.1°F15.6°C 54.3°F12.4°C 81% 3.8 mph NNE6.1 kmh NNE 6.0 mph9.7 kmh 29.57 in1001.4 mb 0.28 in7.1 mm 0.12 in3.0 mm 0.31 in7.9 mm
01:23 AM 60.1°F15.6°C 54.5°F12.5°C 82% 3.8 mph 6.1 kmh 8.3 mph13.4 kmh 29.57 in1001.4 mb 0.29 in7.4 mm 0.12 in3.0 mm 0.33 in8.4 mm
01:28 AM 60.1°F15.6°C 54.5°F12.5°C 82% 3.1 mph 5.0 kmh 7.6 mph12.2 kmh 29.54 in1000.3 mb 0.27 in6.9 mm 0.00 in0.0 mm 0.34 in8.6 mm
01:33 AM 60.3°F15.7°C 54.7°F12.6°C 82% Calm Calm 3.1 mph5.0 kmh 29.54 in1000.3 mb 0.27 in6.9 mm 0.00 in0.0 mm 0.35 in8.9 mm
01:39 AM 60.4°F15.8°C 54.9°F12.7°C 82% Calm Calm 3.1 mph5.0 kmh 29.53 in1000.0 mb 0.24 in6.1 mm 0.00 in0.0 mm 0.37 in9.4 mm
01:44 AM 60.6°F15.9°C 55.0°F12.8°C 82% 3.1 mph SW5.0 kmh SW 3.8 mph6.1 kmh 29.52 in999.7 mb 0.20 in5.1 mm 0.00 in0.0 mm 0.38 in9.7 mm
01:49 AM 60.6°F15.9°C 55.0°F12.8°C 82% 6.0 mph S9.7 kmh S 7.6 mph12.2 kmh 29.54 in1000.3 mb 0.19 in4.8 mm 0.00 in0.0 mm 0.39 in9.9 mm
01:54 AM 60.4°F15.8°C 54.9°F12.7°C 82% 5.4 mph S8.7 kmh S 13.0 mph20.9 kmh 29.54 in1000.3 mb 0.20 in5.1 mm 0.12 in3.0 mm 0.41 in10.4 mm
01:59 AM 60.1°F15.6°C 54.5°F12.5°C 82% 6.0 mph S9.7 kmh S 8.3 mph13.4 kmh 29.55 in1000.7 mb 0.19 in4.8 mm 0.00 in0.0 mm 0.42 in10.7 mm
02:02 AM 59.9°F15.5°C 54.3°F12.4°C 82% 6.0 mph S9.7 kmh S -- 29.55 in1000.7 mb 0.00 in0.0 mm 0.00 in0.0 mm 0.42 in10.7 mm
02:05 AM 59.7°F15.4°C 54.1°F12.3°C 82% 6.0 mph S9.7 kmh S -- 29.55 in1000.7 mb 0.00 in0.0 mm 0.00 in0.0 mm 0.42 in10.7 mm
02:10 AM 59.7°F15.4°C 54.1°F12.3°C 82% 6.9 mph S11.1 kmh S 12.1 mph19.5 kmh 29.55 in1000.7 mb 0.03 in0.8 mm 0.36 in9.1 mm 0.48 in12.2 mm
02:15 AM 59.7°F15.4°C 54.1°F12.3°C 82% 2.2 mph SW3.5 kmh SW 10.7 mph17.2 kmh 29.54 in1000.3 mb 0.04 in1.0 mm 0.12 in3.0 mm 0.49 in12.4 mm
02:20 AM 59.5°F15.3°C 54.0°F12.2°C 82% 3.8 mph S6.1 kmh S 8.3 mph13.4 kmh 29.54 in1000.3 mb 0.04 in1.0 mm 0.00 in0.0 mm 0.50 in12.7 mm
02:25 AM 59.5°F15.3°C 54.0°F12.2°C 82% 5.4 mph SW8.7 kmh SW 6.9 mph11.1 kmh 29.54 in1000.3 mb 0.07 in1.8 mm 0.36 in9.1 mm 0.52 in13.2 mm
02:31 AM 59.5°F15.3°C 54.0°F12.2°C 82% 6.0 mph S9.7 kmh S 9.8 mph15.8 kmh 29.54 in1000.3 mb 0.09 in2.3 mm 0.20 in5.1 mm 0.54 in13.7 mm
02:36 AM 59.4°F15.2°C 53.8°F12.1°C 82% 4.5 mph SE7.2 kmh SE 10.7 mph17.2 kmh 29.54 in1000.3 mb 0.12 in3.0 mm 0.36 in9.1 mm 0.57 in14.5 mm
02:41 AM 59.4°F15.2°C 53.8°F12.1°C 82% 3.1 mph SE5.0 kmh SE 7.6 mph12.2 kmh 29.54 in1000.3 mb 0.15 in3.8 mm 0.36 in9.1 mm 0.60 in15.2 mm
02:46 AM 59.4°F15.2°C 53.8°F12.1°C 82% 3.8 mph SE6.1 kmh SE 8.3 mph13.4 kmh 29.53 in1000.0 mb 0.18 in4.6 mm 0.36 in9.1 mm 0.63 in16.0 mm
02:51 AM 59.4°F15.2°C 53.8°F12.1°C 82% 3.1 mph E5.0 kmh E 9.2 mph14.8 kmh 29.53 in1000.0 mb 0.19 in4.8 mm 0.12 in3.0 mm 0.64 in16.3 mm
02:56 AM 59.4°F15.2°C 53.8°F12.1°C 82% 3.8 mph SE6.1 kmh SE 8.3 mph13.4 kmh 29.52 in999.7 mb 0.20 in5.1 mm 0.12 in3.0 mm 0.65 in16.5 mm
03:02 AM 59.5°F15.3°C 54.0°F12.2°C 82% 6.0 mph SE9.7 kmh SE 9.8 mph15.8 kmh 29.52 in999.7 mb 0.22 in5.6 mm 0.02 in0.5 mm 0.67 in17.0 mm
03:07 AM 59.4°F15.2°C 53.8°F12.1°C 82% 1.6 mph 2.6 kmh 7.6 mph12.2 kmh 29.51 in999.3 mb 0.22 in5.6 mm 0.00 in0.0 mm 0.68 in17.3 mm
03:12 AM 59.5°F15.3°C 54.0°F12.2°C 82% 4.5 mph SW7.2 kmh SW 6.0 mph9.7 kmh 29.49 in998.6 mb 0.22 in5.6 mm 0.00 in0.0 mm 0.69 in17.5 mm
03:17 AM 59.5°F15.3°C 54.0°F12.2°C 82% 8.3 mph NE13.4 kmh NE 13.6 mph21.9 kmh 29.48 in998.3 mb 0.22 in5.6 mm 0.00 in0.0 mm 0.70 in17.8 mm
03:22 AM 59.7°F15.4°C 54.1°F12.3°C 82% 8.3 mph E13.4 kmh E 11.4 mph18.3 kmh 29.48 in998.3 mb 0.20 in5.1 mm 0.00 in0.0 mm 0.72 in18.3 mm
03:27 AM 59.9°F15.5°C 54.3°F12.4°C 82% 7.6 mph E12.2 kmh E 12.1 mph19.5 kmh 29.47 in998.0 mb 0.20 in5.1 mm 0.00 in0.0 mm 0.73 in18.5 mm
03:33 AM 60.1°F15.6°C 54.5°F12.5°C 82% 6.9 mph E11.1 kmh E 13.0 mph20.9 kmh 29.46 in997.6 mb 0.17 in4.3 mm 0.00 in0.0 mm 0.73 in18.5 mm
03:38 AM 60.1°F15.6°C 54.5°F12.5°C 82% 8.3 mph SE13.4 kmh SE 13.6 mph21.9 kmh 29.46 in997.6 mb 0.18 in4.6 mm 0.12 in3.0 mm 0.75 in19.1 mm
03:43 AM 60.1°F15.6°C 54.5°F12.5°C 82% 7.6 mph ENE12.2 kmh ENE 13.6 mph21.9 kmh 29.47 in998.0 mb 0.15 in3.8 mm 0.00 in0.0 mm 0.76 in19.3 mm
03:48 AM 60.3°F15.7°C 54.7°F12.6°C 82% 3.1 mph NE5.0 kmh NE 11.4 mph18.3 kmh 29.48 in998.3 mb 0.15 in3.8 mm 0.00 in0.0 mm 0.78 in19.8 mm
03:53 AM 60.3°F15.7°C 54.7°F12.6°C 82% 3.1 mph NE5.0 kmh NE 6.9 mph11.1 kmh 29.50 in999.0 mb 0.14 in3.6 mm 0.00 in0.0 mm 0.78 in19.8 mm
03:58 AM 60.4°F15.8°C 54.9°F12.7°C 82% 1.6 mph SW2.6 kmh SW 4.5 mph7.2 kmh 29.53 in1000.0 mb 0.13 in3.3 mm 0.00 in0.0 mm 0.79 in20.1 mm
04:04 AM 60.4°F15.8°C 54.9°F12.7°C 82% 1.6 mph WSW2.6 kmh WSW 3.1 mph5.0 kmh 29.54 in1000.3 mb 0.11 in2.8 mm 0.00 in0.0 mm 0.79 in20.1 mm
04:09 AM 60.4°F15.8°C 54.9°F12.7°C 82% 3.1 mph W5.0 kmh W 4.5 mph7.2 kmh 29.56 in1001.0 mb 0.11 in2.8 mm 0.00 in0.0 mm 0.80 in20.3 mm
04:14 AM 60.6°F15.9°C 55.0°F12.8°C 82% Calm Calm 3.8 mph6.1 kmh 29.56 in1001.0 mb 0.11 in2.8 mm 0.00 in0.0 mm 0.81 in20.6 mm
04:19 AM 60.6°F15.9°C 55.0°F12.8°C 82% 1.6 mph NW2.6 kmh NW 3.1 mph5.0 kmh 29.57 in1001.4 mb 0.13 in3.3 mm 0.24 in6.1 mm 0.83 in21.1 mm
04:24 AM 60.6°F15.9°C 55.0°F12.8°C 82% 0.7 mph W1.1 kmh W 2.2 mph3.5 kmh 29.57 in1001.4 mb 0.11 in2.8 mm 0.00 in0.0 mm 0.84 in21.3 mm
04:29 AM 60.8°F16.0°C 54.9°F12.7°C 81% 2.2 mph WSW3.5 kmh WSW 3.1 mph5.0 kmh 29.56 in1001.0 mb 0.11 in2.8 mm 0.00 in0.0 mm 0.84 in21.3 mm
04:35 AM 60.8°F16.0°C 54.9°F12.7°C 81% 3.8 mph NW6.1 kmh NW 6.9 mph11.1 kmh 29.58 in1001.7 mb 0.12 in3.0 mm 0.10 in2.5 mm 0.85 in21.6 mm
04:40 AM 60.8°F16.0°C 54.9°F12.7°C 81% 3.1 mph W5.0 kmh W 9.8 mph15.8 kmh 29.59 in1002.0 mb 0.11 in2.8 mm 0.00 in0.0 mm 0.87 in22.1 mm
04:45 AM 61.0°F16.1°C 55.0°F12.8°C 81% 3.8 mph NE6.1 kmh NE 6.9 mph11.1 kmh 29.54 in1000.3 mb 0.12 in3.0 mm 0.12 in3.0 mm 0.88 in22.4 mm
04:50 AM 60.8°F16.0°C 54.9°F12.7°C 81% 5.4 mph NE8.7 kmh NE 9.8 mph15.8 kmh 29.52 in999.7 mb 0.12 in3.0 mm 0.00 in0.0 mm 0.90 in22.9 mm
04:55 AM 60.8°F16.0°C 54.9°F12.7°C 81% 8.3 mph NE13.4 kmh NE 13.6 mph21.9 kmh 29.49 in998.6 mb 0.12 in3.0 mm 0.00 in0.0 mm 0.90 in22.9 mm
05:00 AM 61.0°F16.1°C 55.0°F12.8°C 81% 7.6 mph NE12.2 kmh NE 15.2 mph24.5 kmh 29.47 in998.0 mb 0.12 in3.0 mm 0.00 in0.0 mm 0.91 in23.1 mm
05:06 AM 61.0°F16.1°C 55.0°F12.8°C 81% 7.6 mph NE12.2 kmh NE 15.2 mph24.5 kmh 29.45 in997.3 mb 0.12 in3.0 mm 0.00 in0.0 mm 0.91 in23.1 mm
05:11 AM 61.2°F16.2°C 55.2°F12.9°C 81% 6.0 mph NE9.7 kmh NE 18.3 mph29.5 kmh 29.46 in997.6 mb 0.09 in2.3 mm 0.00 in0.0 mm 0.91 in23.1 mm
05:16 AM 61.3°F16.3°C 55.4°F13.0°C 81% 8.3 mph NE13.4 kmh NE 15.9 mph25.6 kmh 29.47 in998.0 mb 0.09 in2.3 mm 0.00 in0.0 mm 0.91 in23.1 mm
05:21 AM 61.5°F16.4°C 55.9°F13.3°C 82% 5.4 mph NNW8.7 kmh NNW 13.6 mph21.9 kmh 29.46 in997.6 mb 0.08 in2.0 mm 0.00 in0.0 mm 0.91 in23.1 mm
05:26 AM 61.7°F16.5°C 56.1°F13.4°C 82% 9.2 mph NNE14.8 kmh NNE 15.2 mph24.5 kmh 29.47 in998.0 mb 0.07 in1.8 mm 0.00 in0.0 mm 0.91 in23.1 mm
05:32 AM 62.2°F16.8°C 56.7°F13.7°C 82% 6.0 mph NE9.7 kmh NE 13.0 mph20.9 kmh 29.46 in997.6 mb 0.07 in1.8 mm 0.00 in0.0 mm 0.91 in23.1 mm
05:37 AM 62.2°F16.8°C 56.7°F13.7°C 82% 5.4 mph 8.7 kmh 11.4 mph18.3 kmh 29.47 in998.0 mb 0.04 in1.0 mm 0.00 in0.0 mm 0.91 in23.1 mm
05:47 AM 62.4°F16.9°C 56.8°F13.8°C 82% 11.4 mph S18.3 kmh S 28.2 mph45.4 kmh 29.53 in1000.0 mb 0.01 in0.3 mm 0.00 in0.0 mm 0.91 in23.1 mm
05:52 AM 61.7°F16.5°C 56.1°F13.4°C 82% 13.0 mph WNW20.9 kmh WNW 18.3 mph29.5 kmh 29.56 in1001.0 mb 0.01 in0.3 mm 0.00 in0.0 mm 0.91 in23.1 mm
05:57 AM 61.7°F16.5°C 56.1°F13.4°C 82% 5.4 mph SW8.7 kmh SW 19.7 mph31.7 kmh 29.57 in1001.4 mb 0.00 in0.0 mm 0.00 in0.0 mm 0.91 in23.1 mm
06:03 AM 61.7°F16.5°C 56.1°F13.4°C 82% 11.4 mph NW18.3 kmh NW 15.9 mph25.6 kmh 29.56 in1001.0 mb 0.00 in0.0 mm 0.00 in0.0 mm 0.91 in23.1 mm
06:08 AM 61.7°F16.5°C 56.1°F13.4°C 82% 6.0 mph W9.7 kmh W 15.9 mph25.6 kmh 29.57 in1001.4 mb 0.00 in0.0 mm 0.00 in0.0 mm 0.91 in23.1 mm
06:13 AM 61.7°F16.5°C 56.1°F13.4°C 82% 6.9 mph SW11.1 kmh SW 10.7 mph17.2 kmh 29.58 in1001.7 mb 0.00 in0.0 mm 0.00 in0.0 mm 0.91 in23.1 mm
06:18 AM 61.7°F16.5°C 56.1°F13.4°C 82% 8.3 mph S13.4 kmh S 10.7 mph17.2 kmh 29.58 in1001.7 mb 0.00 in0.0 mm 0.00 in0.0 mm 0.91 in23.1 mm
06:23 AM 61.7°F16.5°C 56.1°F13.4°C 82% 6.0 mph S9.7 kmh S 12.1 mph19.5 kmh 29.59 in1002.0 mb 0.00 in0.0 mm 0.00 in0.0 mm 0.91 in23.1 mm
06:28 AM 61.7°F16.5°C 56.1°F13.4°C 82% 6.9 mph SW11.1 kmh SW 11.4 mph18.3 kmh 29.59 in1002.0 mb 0.00 in0.0 mm 0.00 in0.0 mm 0.91 in23.1 mm
06:34 AM 61.7°F16.5°C 56.1°F13.4°C 82% 4.5 mph S7.2 kmh S 11.4 mph18.3 kmh 29.58 in1001.7 mb 0.00 in0.0 mm 0.00 in0.0 mm 0.91 in23.1 mm
06:39 AM 61.7°F16.5°C 56.1°F13.4°C 82% 6.0 mph SSW9.7 kmh SSW 12.1 mph19.5 kmh 29.58 in1001.7 mb 0.00 in0.0 mm 0.00 in0.0 mm 0.91 in23.1 mm
06:44 AM 61.5°F16.4°C 55.9°F13.3°C 82% 10.7 mph SSW17.2 kmh SSW 13.0 mph20.9 kmh 29.59 in1002.0 mb 0.00 in0.0 mm 0.00 in0.0 mm 0.91 in23.1 mm
06:49 AM 61.2°F16.2°C 55.2°F12.9°C 81% 4.5 mph SW7.2 kmh SW 15.2 mph24.5 kmh 29.60 in1002.4 mb 0.00 in0.0 mm 0.00 in0.0 mm 0.91 in23.1 mm
06:54 AM 61.2°F16.2°C 55.2°F12.9°C 81% 6.0 mph NW9.7 kmh NW 9.8 mph15.8 kmh 29.59 in1002.0 mb 0.00 in0.0 mm 0.00 in0.0 mm 0.91 in23.1 mm
06:59 AM 61.0°F16.1°C 55.0°F12.8°C 81% 3.1 mph SW5.0 kmh SW 9.8 mph15.8 kmh 29.61 in1002.7 mb 0.00 in0.0 mm 0.00 in0.0 mm 0.91 in23.1 mm
07:05 AM 60.8°F16.0°C 54.9°F12.7°C 81% 3.8 mph SW6.1 kmh SW 11.4 mph18.3 kmh 29.62 in1003.0 mb 0.00 in0.0 mm 0.00 in0.0 mm 0.91 in23.1 mm
07:10 AM 60.4°F15.8°C 54.9°F12.7°C 82% 3.8 mph S6.1 kmh S 7.6 mph12.2 kmh 29.60 in1002.4 mb 0.00 in0.0 mm 0.00 in0.0 mm 0.91 in23.1 mm
07:15 AM 60.4°F15.8°C 54.9°F12.7°C 82% 3.8 mph S6.1 kmh S 7.6 mph12.2 kmh 29.60 in1002.4 mb 0.00 in0.0 mm 0.00 in0.0 mm 0.91 in23.1 mm
07:20 AM 60.4°F15.8°C 54.9°F12.7°C 82% 3.1 mph SW5.0 kmh SW 6.0 mph9.7 kmh 29.61 in1002.7 mb 0.00 in0.0 mm 0.00 in0.0 mm 0.91 in23.1 mm
07:25 AM 60.4°F15.8°C 54.9°F12.7°C 82% 6.0 mph SW9.7 kmh SW 8.3 mph13.4 kmh 29.61 in1002.7 mb 0.00 in0.0 mm 0.00 in0.0 mm 0.91 in23.1 mm
07:30 AM 60.3°F15.7°C 54.7°F12.6°C 82% 3.1 mph SW5.0 kmh SW 9.2 mph14.8 kmh 29.61 in1002.7 mb 0.00 in0.0 mm 0.00 in0.0 mm 0.91 in23.1 mm
07:36 AM 60.4°F15.8°C 54.9°F12.7°C 82% 6.0 mph SW9.7 kmh SW 8.3 mph13.4 kmh 29.61 in1002.7 mb 0.00 in0.0 mm 0.00 in0.0 mm 0.91 in23.1 mm
07:41 AM 60.4°F15.8°C 54.9°F12.7°C 82% 6.0 mph SW9.7 kmh SW 10.7 mph17.2 kmh 29.63 in1003.4 mb 0.00 in0.0 mm 0.00 in0.0 mm 0.91 in23.1 mm
07:46 AM 60.3°F15.7°C 54.7°F12.6°C 82% 6.0 mph SW9.7 kmh SW 13.6 mph21.9 kmh 29.63 in1003.4 mb 0.00 in0.0 mm 0.00 in0.0 mm 0.91 in23.1 mm
07:51 AM 60.4°F15.8°C 54.9°F12.7°C 82% 7.6 mph SW12.2 kmh SW 11.4 mph18.3 kmh 29.63 in1003.4 mb 0.00 in0.0 mm 0.00 in0.0 mm 0.91 in23.1 mm
07:56 AM 60.3°F15.7°C 54.7°F12.6°C 82% 6.9 mph SW11.1 kmh SW 12.1 mph19.5 kmh 29.64 in1003.7 mb 0.00 in0.0 mm 0.00 in0.0 mm 0.91 in23.1 mm
08:01 AM 60.6°F15.9°C 55.0°F12.8°C 82% 8.3 mph SW13.4 kmh SW 9.8 mph15.8 kmh 29.65 in1004.1 mb 0.00 in0.0 mm 0.00 in0.0 mm 0.91 in23.1 mm
08:07 AM 60.8°F16.0°C 54.9°F12.7°C 81% 6.0 mph S9.7 kmh S 10.7 mph17.2 kmh 29.66 in1004.4 mb 0.00 in0.0 mm 0.00 in0.0 mm 0.91 in23.1 mm
08:12 AM 61.0°F16.1°C 55.0°F12.8°C 81% 4.5 mph SW7.2 kmh SW 10.7 mph17.2 kmh 29.66 in1004.4 mb 0.00 in0.0 mm 0.00 in0.0 mm 0.91 in23.1 mm
08:17 AM 61.7°F16.5°C 55.8°F13.2°C 81% 6.0 mph SW9.7 kmh SW 9.2 mph14.8 kmh 29.66 in1004.4 mb 0.00 in0.0 mm 0.00 in0.0 mm 0.91 in23.1 mm
08:22 AM 61.7°F16.5°C 55.8°F13.2°C 81% 6.0 mph S9.7 kmh S 10.7 mph17.2 kmh 29.66 in1004.4 mb 0.00 in0.0 mm 0.00 in0.0 mm 0.91 in23.1 mm
08:27 AM 62.2°F16.8°C 56.3°F13.5°C 81% 7.6 mph SSW12.2 kmh SSW 13.6 mph21.9 kmh 29.66 in1004.4 mb 0.00 in0.0 mm 0.00 in0.0 mm 0.91 in23.1 mm
08:32 AM 62.6°F17.0°C 57.0°F13.9°C 82% 7.6 mph S12.2 kmh S 9.8 mph15.8 kmh 29.67 in1004.7 mb 0.00 in0.0 mm 0.00 in0.0 mm 0.91 in23.1 mm
08:38 AM 63.5°F17.5°C 57.6°F14.2°C 81% 5.4 mph WNW8.7 kmh WNW 9.8 mph15.8 kmh 29.67 in1004.7 mb 0.00 in0.0 mm 0.00 in0.0 mm 0.91 in23.1 mm
08:43 AM 64.8°F18.2°C 58.1°F14.5°C 79% 4.5 mph SW7.2 kmh SW 10.7 mph17.2 kmh 29.66 in1004.4 mb 0.00 in0.0 mm 0.00 in0.0 mm 0.91 in23.1 mm
08:48 AM 64.9°F18.3°C 57.9°F14.4°C 78% 6.9 mph SW11.1 kmh SW 11.4 mph18.3 kmh 29.67 in1004.7 mb 0.00 in0.0 mm 0.00 in0.0 mm 0.91 in23.1 mm
08:53 AM 64.6°F18.1°C 56.8°F13.8°C 76% 5.4 mph S8.7 kmh S 11.4 mph18.3 kmh 29.67 in1004.7 mb 0.00 in0.0 mm 0.00 in0.0 mm 0.91 in23.1 mm
08:58 AM 65.3°F18.5°C 57.2°F14.0°C 75% 5.4 mph SSW8.7 kmh SSW 11.4 mph18.3 kmh 29.67 in1004.7 mb 0.00 in0.0 mm 0.00 in0.0 mm 0.91 in23.1 mm
09:03 AM 66.2°F19.0°C 57.2°F14.0°C 73% 7.6 mph SW12.2 kmh SW 11.4 mph18.3 kmh 29.67 in1004.7 mb 0.00 in0.0 mm 0.00 in0.0 mm 0.91 in23.1 mm
09:09 AM 67.6°F19.8°C 57.9°F14.4°C 71% 6.0 mph SW9.7 kmh SW 11.4 mph18.3 kmh 29.66 in1004.4 mb 0.00 in0.0 mm 0.00 in0.0 mm 0.91 in23.1 mm
09:14 AM 67.1°F19.5°C 57.0°F13.9°C 70% 7.6 mph NW12.2 kmh NW 13.6 mph21.9 kmh 29.67 in1004.7 mb 0.00 in0.0 mm 0.00 in0.0 mm 0.91 in23.1 mm
09:19 AM 66.6°F19.2°C 56.5°F13.6°C 70% 6.9 mph SW11.1 kmh SW 12.1 mph19.5 kmh 29.67 in1004.7 mb 0.00 in0.0 mm 0.00 in0.0 mm 0.91 in23.1 mm
09:24 AM 67.1°F19.5°C 57.0°F13.9°C 70% 10.7 mph SW17.2 kmh SW 13.0 mph20.9 kmh 29.67 in1004.7 mb 0.00 in0.0 mm 0.00 in0.0 mm 0.91 in23.1 mm
09:29 AM 66.7°F19.3°C 56.7°F13.7°C 70% 6.9 mph SW11.1 kmh SW 12.1 mph19.5 kmh 29.66 in1004.4 mb 0.00 in0.0 mm 0.00 in0.0 mm 0.91 in23.1 mm
09:34 AM 66.7°F19.3°C 57.0°F13.9°C 71% 4.5 mph SW7.2 kmh SW 13.0 mph20.9 kmh 29.67 in1004.7 mb 0.00 in0.0 mm 0.00 in0.0 mm 0.91 in23.1 mm
09:40 AM 69.4°F20.8°C 59.2°F15.1°C 70% 6.9 mph S11.1 kmh S 9.8 mph15.8 kmh 29.67 in1004.7 mb 0.00 in0.0 mm 0.00 in0.0 mm 0.91 in23.1 mm
09:45 AM 70.3°F21.3°C 58.5°F14.7°C 66% 6.0 mph S9.7 kmh S 10.7 mph17.2 kmh 29.67 in1004.7 mb 0.00 in0.0 mm 0.00 in0.0 mm 0.91 in23.1 mm
09:50 AM 69.1°F20.6°C 57.2°F14.0°C 66% 6.9 mph SW11.1 kmh SW 13.6 mph21.9 kmh 29.67 in1004.7 mb 0.00 in0.0 mm 0.00 in0.0 mm 0.91 in23.1 mm
09:55 AM 69.8°F21.0°C 58.3°F14.6°C 67% 4.5 mph S7.2 kmh S 14.5 mph23.3 kmh 29.68 in1005.1 mb 0.00 in0.0 mm 0.00 in0.0 mm 0.91 in23.1 mm
10:00 AM 70.7°F21.5°C 58.8°F14.9°C 66% 6.9 mph SW11.1 kmh SW 13.6 mph21.9 kmh 29.68 in1005.1 mb 0.00 in0.0 mm 0.00 in0.0 mm 0.91 in23.1 mm
10:06 AM 70.3°F21.3°C 58.5°F14.7°C 66% 8.3 mph SW13.4 kmh SW 15.9 mph25.6 kmh 29.69 in1005.4 mb 0.00 in0.0 mm 0.00 in0.0 mm 0.91 in23.1 mm
10:11 AM 68.7°F20.4°C 57.4°F14.1°C 67% 6.9 mph SW11.1 kmh SW 15.9 mph25.6 kmh 29.69 in1005.4 mb 0.00 in0.0 mm 0.00 in0.0 mm 0.91 in23.1 mm
10:16 AM 68.5°F20.3°C 57.6°F14.2°C 68% 9.2 mph SW14.8 kmh SW 13.0 mph20.9 kmh 29.69 in1005.4 mb 0.00 in0.0 mm 0.00 in0.0 mm 0.91 in23.1 mm
10:21 AM 68.2°F20.1°C 57.6°F14.2°C 69% 4.5 mph SW7.2 kmh SW 17.4 mph28.0 kmh 29.69 in1005.4 mb 0.00 in0.0 mm 0.00 in0.0 mm 0.91 in23.1 mm
10:26 AM 68.9°F20.5°C 58.3°F14.6°C 69% 6.0 mph W9.7 kmh W 12.1 mph19.5 kmh 29.69 in1005.4 mb 0.00 in0.0 mm 0.00 in0.0 mm 0.91 in23.1 mm
10:31 AM 68.4°F20.2°C 57.4°F14.1°C 68% 7.6 mph SSW12.2 kmh SSW 13.0 mph20.9 kmh 29.70 in1005.8 mb 0.00 in0.0 mm 0.00 in0.0 mm 0.91 in23.1 mm
10:37 AM 68.2°F20.1°C 57.2°F14.0°C 68% 10.7 mph SW17.2 kmh SW 14.5 mph23.3 kmh 29.71 in1006.1 mb 0.00 in0.0 mm 0.00 in0.0 mm 0.91 in23.1 mm
10:42 AM 67.8°F19.9°C 57.7°F14.3°C 70% 9.2 mph S14.8 kmh S 14.5 mph23.3 kmh 29.70 in1005.8 mb 0.00 in0.0 mm 0.00 in0.0 mm 0.91 in23.1 mm
10:47 AM 68.0°F20.0°C 57.0°F13.9°C 68% 7.6 mph SW12.2 kmh SW 18.3 mph29.5 kmh 29.70 in1005.8 mb 0.00 in0.0 mm 0.00 in0.0 mm 0.91 in23.1 mm
10:52 AM 69.1°F20.6°C 57.7°F14.3°C 67% 7.6 mph NW12.2 kmh NW 15.2 mph24.5 kmh 29.70 in1005.8 mb 0.00 in0.0 mm 0.00 in0.0 mm 0.91 in23.1 mm
10:57 AM 69.1°F20.6°C 57.7°F14.3°C 67% 9.8 mph SW15.8 kmh SW 15.9 mph25.6 kmh 29.71 in1006.1 mb 0.00 in0.0 mm 0.00 in0.0 mm 0.91 in23.1 mm
11:02 AM 68.9°F20.5°C 57.6°F14.2°C 67% 9.2 mph NW14.8 kmh NW 15.2 mph24.5 kmh 29.71 in1006.1 mb 0.00 in0.0 mm 0.00 in0.0 mm 0.91 in23.1 mm
11:08 AM 69.1°F20.6°C 58.1°F14.5°C 68% 9.8 mph S15.8 kmh S 14.5 mph23.3 kmh 29.70 in1005.8 mb 0.00 in0.0 mm 0.00 in0.0 mm 0.91 in23.1 mm
11:13 AM 68.9°F20.5°C 57.9°F14.4°C 68% 11.4 mph WNW18.3 kmh WNW 15.2 mph24.5 kmh 29.71 in1006.1 mb 0.00 in0.0 mm 0.00 in0.0 mm 0.91 in23.1 mm
11:18 AM 68.7°F20.4°C 58.1°F14.5°C 69% 6.9 mph NW11.1 kmh NW 15.9 mph25.6 kmh 29.71 in1006.1 mb 0.00 in0.0 mm 0.00 in0.0 mm 0.91 in23.1 mm
11:23 AM 68.9°F20.5°C 57.9°F14.4°C 68% 13.6 mph SW21.9 kmh SW 17.4 mph28.0 kmh 29.71 in1006.1 mb 0.00 in0.0 mm 0.00 in0.0 mm 0.91 in23.1 mm
11:28 AM 68.2°F20.1°C 57.2°F14.0°C 68% 8.3 mph SW13.4 kmh SW 17.4 mph28.0 kmh 29.72 in1006.4 mb 0.00 in0.0 mm 0.00 in0.0 mm 0.91 in23.1 mm
11:33 AM 68.0°F20.0°C 57.0°F13.9°C 68% 7.6 mph S12.2 kmh S 14.5 mph23.3 kmh 29.72 in1006.4 mb 0.00 in0.0 mm 0.00 in0.0 mm 0.91 in23.1 mm
11:39 AM 67.8°F19.9°C 57.7°F14.3°C 70% 6.9 mph SSW11.1 kmh SSW 13.6 mph21.9 kmh 29.71 in1006.1 mb 0.00 in0.0 mm 0.00 in0.0 mm 0.91 in23.1 mm
11:44 AM 68.0°F20.0°C 57.4°F14.1°C 69% 6.9 mph SW11.1 kmh SW 12.1 mph19.5 kmh 29.72 in1006.4 mb 0.00 in0.0 mm 0.00 in0.0 mm 0.91 in23.1 mm
11:49 AM 67.3°F19.6°C 57.2°F14.0°C 70% 12.1 mph SW19.5 kmh SW 17.4 mph28.0 kmh 29.72 in1006.4 mb 0.00 in0.0 mm 0.00 in0.0 mm 0.91 in23.1 mm
11:54 AM 67.1°F19.5°C 57.0°F13.9°C 70% 14.5 mph SW23.3 kmh SW 18.3 mph29.5 kmh 29.73 in1006.8 mb 0.00 in0.0 mm 0.00 in0.0 mm 0.91 in23.1 mm
11:59 AM 66.4°F19.1°C 56.3°F13.5°C 70% 8.3 mph SW13.4 kmh SW 18.3 mph29.5 kmh 29.73 in1006.8 mb 0.00 in0.0 mm 0.00 in0.0 mm 0.91 in23.1 mm
12:04 PM 66.6°F19.2°C 56.5°F13.6°C 70% 11.4 mph SW18.3 kmh SW 18.3 mph29.5 kmh 29.73 in1006.8 mb 0.00 in0.0 mm 0.00 in0.0 mm 0.91 in23.1 mm
12:10 PM 66.2°F19.0°C 56.1°F13.4°C 70% 8.3 mph SW13.4 kmh SW 15.2 mph24.5 kmh 29.73 in1006.8 mb 0.00 in0.0 mm 0.00 in0.0 mm 0.91 in23.1 mm
12:15 PM 66.7°F19.3°C 56.7°F13.7°C 70% 14.5 mph SW23.3 kmh SW 16.8 mph27.0 kmh 29.74 in1007.1 mb 0.00 in0.0 mm 0.00 in0.0 mm 0.91 in23.1 mm
12:20 PM 66.4°F19.1°C 56.3°F13.5°C 70% 10.7 mph S17.2 kmh S 16.8 mph27.0 kmh 29.74 in1007.1 mb 0.00 in0.0 mm 0.00 in0.0 mm 0.91 in23.1 mm
12:25 PM 66.0°F18.9°C 56.3°F13.5°C 71% 6.9 mph SW11.1 kmh SW 15.2 mph24.5 kmh 29.74 in1007.1 mb 0.00 in0.0 mm 0.00 in0.0 mm 0.91 in23.1 mm
12:30 PM 65.5°F18.6°C 55.8°F13.2°C 71% 12.1 mph SSW19.5 kmh SSW 19.0 mph30.6 kmh 29.75 in1007.5 mb 0.00 in0.0 mm 0.00 in0.0 mm 0.91 in23.1 mm
12:35 PM 65.3°F18.5°C 56.1°F13.4°C 72% 11.4 mph SW18.3 kmh SW 18.3 mph29.5 kmh 29.75 in1007.5 mb 0.00 in0.0 mm 0.00 in0.0 mm 0.91 in23.1 mm
12:41 PM 65.1°F18.4°C 55.9°F13.3°C 72% 9.2 mph SW14.8 kmh SW 18.3 mph29.5 kmh 29.75 in1007.5 mb 0.00 in0.0 mm 0.00 in0.0 mm 0.91 in23.1 mm
12:46 PM 65.5°F18.6°C 56.3°F13.5°C 72% 13.0 mph SW20.9 kmh SW 17.4 mph28.0 kmh 29.76 in1007.8 mb 0.00 in0.0 mm 0.00 in0.0 mm 0.91 in23.1 mm
12:51 PM 65.1°F18.4°C 55.4°F13.0°C 71% 10.7 mph SSW17.2 kmh SSW 18.3 mph29.5 kmh 29.75 in1007.5 mb 0.00 in0.0 mm 0.00 in0.0 mm 0.91 in23.1 mm
12:56 PM 65.7°F18.7°C 55.9°F13.3°C 71% 7.6 mph SSW12.2 kmh SSW 15.2 mph24.5 kmh 29.76 in1007.8 mb 0.00 in0.0 mm 0.00 in0.0 mm 0.91 in23.1 mm
01:01 PM 65.5°F18.6°C 55.8°F13.2°C 71% 12.1 mph SW19.5 kmh SW 15.9 mph25.6 kmh 29.76 in1007.8 mb 0.00 in0.0 mm 0.00 in0.0 mm 0.91 in23.1 mm
01:06 PM 65.1°F18.4°C 55.9°F13.3°C 72% 9.2 mph SW14.8 kmh SW 15.9 mph25.6 kmh 29.77 in1008.1 mb 0.00 in0.0 mm 0.00 in0.0 mm 0.91 in23.1 mm
01:12 PM 65.1°F18.4°C 55.9°F13.3°C 72% 9.2 mph SW14.8 kmh SW 16.8 mph27.0 kmh 29.77 in1008.1 mb 0.00 in0.0 mm 0.00 in0.0 mm 0.91 in23.1 mm
01:17 PM 64.6°F18.1°C 55.0°F12.8°C 71% 8.3 mph SW13.4 kmh SW 16.8 mph27.0 kmh 29.77 in1008.1 mb 0.00 in0.0 mm 0.00 in0.0 mm 0.91 in23.1 mm
01:22 PM 65.1°F18.4°C 55.9°F13.3°C 72% 10.7 mph SW17.2 kmh SW 15.2 mph24.5 kmh 29.77 in1008.1 mb 0.00 in0.0 mm 0.00 in0.0 mm 0.91 in23.1 mm
01:27 PM 64.9°F18.3°C 55.4°F13.0°C 71% 13.0 mph SW20.9 kmh SW 15.2 mph24.5 kmh 29.78 in1008.5 mb 0.00 in0.0 mm 0.00 in0.0 mm 0.91 in23.1 mm
01:32 PM 64.2°F17.9°C 55.0°F12.8°C 72% 9.2 mph WSW14.8 kmh WSW 15.9 mph25.6 kmh 29.78 in1008.5 mb 0.00 in0.0 mm 0.00 in0.0 mm 0.91 in23.1 mm
01:37 PM 64.6°F18.1°C 55.4°F13.0°C 72% 9.2 mph SW14.8 kmh SW 14.5 mph23.3 kmh 29.78 in1008.5 mb 0.00 in0.0 mm 0.00 in0.0 mm 0.91 in23.1 mm
01:43 PM 65.5°F18.6°C 55.8°F13.2°C 71% 5.4 mph SW8.7 kmh SW 15.2 mph24.5 kmh 29.77 in1008.1 mb 0.00 in0.0 mm 0.00 in0.0 mm 0.91 in23.1 mm
01:48 PM 65.8°F18.8°C 56.1°F13.4°C 71% 8.3 mph SW13.4 kmh SW 14.5 mph23.3 kmh 29.78 in1008.5 mb 0.00 in0.0 mm 0.00 in0.0 mm 0.91 in23.1 mm
01:53 PM 65.8°F18.8°C 55.8°F13.2°C 70% 6.0 mph SW9.7 kmh SW 15.2 mph24.5 kmh 29.78 in1008.5 mb 0.00 in0.0 mm 0.00 in0.0 mm 0.91 in23.1 mm
01:58 PM 66.0°F18.9°C 55.9°F13.3°C 70% 6.0 mph SW9.7 kmh SW 11.4 mph18.3 kmh 29.79 in1008.8 mb 0.00 in0.0 mm 0.00 in0.0 mm 0.91 in23.1 mm
02:03 PM 66.2°F19.0°C 55.8°F13.2°C 69% 4.5 mph SSE7.2 kmh SSE 9.2 mph14.8 kmh 29.78 in1008.5 mb 0.00 in0.0 mm 0.00 in0.0 mm 0.91 in23.1 mm
02:08 PM 66.0°F18.9°C 55.9°F13.3°C 70% 8.3 mph SW13.4 kmh SW 13.0 mph20.9 kmh 29.78 in1008.5 mb 0.00 in0.0 mm 0.00 in0.0 mm 0.91 in23.1 mm
02:14 PM 66.2°F19.0°C 55.4°F13.0°C 68% 7.6 mph SW12.2 kmh SW 13.0 mph20.9 kmh 29.78 in1008.5 mb 0.00 in0.0 mm 0.00 in0.0 mm 0.91 in23.1 mm
02:19 PM 66.4°F19.1°C 55.6°F13.1°C 68% 9.2 mph SW14.8 kmh SW 14.5 mph23.3 kmh 29.79 in1008.8 mb 0.00 in0.0 mm 0.00 in0.0 mm 0.91 in23.1 mm
02:24 PM 66.2°F19.0°C 55.4°F13.0°C 68% 10.7 mph SW17.2 kmh SW 16.8 mph27.0 kmh 29.79 in1008.8 mb 0.00 in0.0 mm 0.00 in0.0 mm 0.91 in23.1 mm
02:29 PM 66.4°F19.1°C 55.6°F13.1°C 68% 5.4 mph NW8.7 kmh NW 13.0 mph20.9 kmh 29.78 in1008.5 mb 0.00 in0.0 mm 0.00 in0.0 mm 0.91 in23.1 mm
02:34 PM 67.6°F19.8°C 56.3°F13.5°C 67% 8.3 mph SW13.4 kmh SW 11.4 mph18.3 kmh 29.79 in1008.8 mb 0.00 in0.0 mm 0.00 in0.0 mm 0.91 in23.1 mm
02:39 PM 67.6°F19.8°C 55.9°F13.3°C 66% 9.2 mph SW14.8 kmh SW 12.1 mph19.5 kmh 29.79 in1008.8 mb 0.00 in0.0 mm 0.00 in0.0 mm 0.91 in23.1 mm
02:45 PM 67.8°F19.9°C 56.1°F13.4°C 66% 9.8 mph SW15.8 kmh SW 12.1 mph19.5 kmh 29.78 in1008.5 mb 0.00 in0.0 mm 0.00 in0.0 mm 0.91 in23.1 mm
02:50 PM 67.5°F19.7°C 55.8°F13.2°C 66% 6.0 mph SSW9.7 kmh SSW 12.1 mph19.5 kmh 29.79 in1008.8 mb 0.00 in0.0 mm 0.00 in0.0 mm 0.91 in23.1 mm
02:55 PM 67.6°F19.8°C 55.9°F13.3°C 66% 9.8 mph SW15.8 kmh SW 12.1 mph19.5 kmh 29.78 in1008.5 mb 0.00 in0.0 mm 0.00 in0.0 mm 0.91 in23.1 mm
03:00 PM 67.5°F19.7°C 55.8°F13.2°C 66% 8.3 mph SW13.4 kmh SW 13.0 mph20.9 kmh 29.78 in1008.5 mb 0.00 in0.0 mm 0.00 in0.0 mm 0.91 in23.1 mm
03:05 PM 67.1°F19.5°C 55.4°F13.0°C 66% 8.3 mph S13.4 kmh S 11.4 mph18.3 kmh 29.79 in1008.8 mb 0.00 in0.0 mm 0.00 in0.0 mm 0.91 in23.1 mm
03:11 PM 67.1°F19.5°C 55.8°F13.2°C 67% 6.9 mph SW11.1 kmh SW 12.1 mph19.5 kmh 29.79 in1008.8 mb 0.00 in0.0 mm 0.00 in0.0 mm 0.91 in23.1 mm
03:16 PM 67.5°F19.7°C 56.1°F13.4°C 67% 3.8 mph SW6.1 kmh SW 13.6 mph21.9 kmh 29.79 in1008.8 mb 0.00 in0.0 mm 0.00 in0.0 mm 0.91 in23.1 mm
03:21 PM 68.0°F20.0°C 55.8°F13.2°C 65% 6.9 mph SW11.1 kmh SW 11.4 mph18.3 kmh 29.79 in1008.8 mb 0.00 in0.0 mm 0.00 in0.0 mm 0.91 in23.1 mm
03:26 PM 67.8°F19.9°C 55.6°F13.1°C 65% 6.9 mph SW11.1 kmh SW 13.6 mph21.9 kmh 29.79 in1008.8 mb 0.00 in0.0 mm 0.00 in0.0 mm 0.91 in23.1 mm
03:31 PM 68.2°F20.1°C 55.6°F13.1°C 64% 8.3 mph NNW13.4 kmh NNW 12.1 mph19.5 kmh 29.79 in1008.8 mb 0.00 in0.0 mm 0.00 in0.0 mm 0.91 in23.1 mm
03:36 PM 69.4°F20.8°C 57.2°F14.0°C 65% 6.0 mph SW9.7 kmh SW 9.8 mph15.8 kmh 29.79 in1008.8 mb 0.00 in0.0 mm 0.00 in0.0 mm 0.91 in23.1 mm
03:42 PM 71.2°F21.8°C 57.0°F13.9°C 61% 9.8 mph 15.8 kmh 13.0 mph20.9 kmh 29.79 in1008.8 mb 0.00 in0.0 mm 0.00 in0.0 mm 0.91 in23.1 mm
03:47 PM 70.9°F21.6°C 56.8°F13.8°C 61% 5.4 mph W8.7 kmh W 13.6 mph21.9 kmh 29.79 in1008.8 mb 0.00 in0.0 mm 0.00 in0.0 mm 0.91 in23.1 mm
03:52 PM 70.5°F21.4°C 56.5°F13.6°C 61% 8.3 mph S13.4 kmh S 13.6 mph21.9 kmh 29.79 in1008.8 mb 0.00 in0.0 mm 0.00 in0.0 mm 0.91 in23.1 mm
03:57 PM 70.3°F21.3°C 56.7°F13.7°C 62% 6.9 mph SW11.1 kmh SW 13.6 mph21.9 kmh 29.79 in1008.8 mb 0.00 in0.0 mm 0.00 in0.0 mm 0.91 in23.1 mm
04:02 PM 71.1°F21.7°C 56.8°F13.8°C 61% 3.8 mph SW6.1 kmh SW 13.6 mph21.9 kmh 29.79 in1008.8 mb 0.00 in0.0 mm 0.00 in0.0 mm 0.91 in23.1 mm
04:07 PM 71.6°F22.0°C 57.9°F14.4°C 62% 6.9 mph S11.1 kmh S 11.4 mph18.3 kmh 29.78 in1008.5 mb 0.00 in0.0 mm 0.00 in0.0 mm 0.91 in23.1 mm
04:13 PM 72.5°F22.5°C 58.3°F14.6°C 61% 7.6 mph SSW12.2 kmh SSW 11.4 mph18.3 kmh 29.78 in1008.5 mb 0.00 in0.0 mm 0.00 in0.0 mm 0.91 in23.1 mm
04:18 PM 72.7°F22.6°C 57.9°F14.4°C 60% 9.8 mph WSW15.8 kmh WSW 15.2 mph24.5 kmh 29.79 in1008.8 mb 0.00 in0.0 mm 0.00 in0.0 mm 0.91 in23.1 mm
04:23 PM 72.5°F22.5°C 58.3°F14.6°C 61% 6.0 mph SW9.7 kmh SW 13.6 mph21.9 kmh 29.78 in1008.5 mb 0.00 in0.0 mm 0.00 in0.0 mm 0.91 in23.1 mm
04:28 PM 72.3°F22.4°C 58.1°F14.5°C 61% 5.4 mph W8.7 kmh W 13.6 mph21.9 kmh 29.78 in1008.5 mb 0.00 in0.0 mm 0.00 in0.0 mm 0.91 in23.1 mm
04:33 PM 73.8°F23.2°C 58.5°F14.7°C 59% 9.8 mph SW15.8 kmh SW 14.5 mph23.3 kmh 29.79 in1008.8 mb 0.00 in0.0 mm 0.00 in0.0 mm 0.91 in23.1 mm
04:38 PM 74.3°F23.5°C 59.0°F15.0°C 59% 7.6 mph SW12.2 kmh SW 13.6 mph21.9 kmh 29.78 in1008.5 mb 0.00 in0.0 mm 0.00 in0.0 mm 0.91 in23.1 mm
04:44 PM 74.7°F23.7°C 58.8°F14.9°C 58% 9.2 mph SW14.8 kmh SW 13.6 mph21.9 kmh 29.79 in1008.8 mb 0.00 in0.0 mm 0.00 in0.0 mm 0.91 in23.1 mm
04:49 PM 74.7°F23.7°C 58.5°F14.7°C 57% 8.3 mph SW13.4 kmh SW 13.6 mph21.9 kmh 29.78 in1008.5 mb 0.00 in0.0 mm 0.00 in0.0 mm 0.91 in23.1 mm
04:54 PM 75.2°F24.0°C 59.0°F15.0°C 57% 7.6 mph SSE12.2 kmh SSE 11.4 mph18.3 kmh 29.78 in1008.5 mb 0.00 in0.0 mm 0.00 in0.0 mm 0.91 in23.1 mm
04:59 PM 75.0°F23.9°C 58.8°F14.9°C 57% 10.7 mph SW17.2 kmh SW 18.3 mph29.5 kmh 29.79 in1008.8 mb 0.00 in0.0 mm 0.00 in0.0 mm 0.91 in23.1 mm
05:04 PM 75.4°F24.1°C 58.6°F14.8°C 56% 8.3 mph SW13.4 kmh SW 13.6 mph21.9 kmh 29.78 in1008.5 mb 0.00 in0.0 mm 0.00 in0.0 mm 0.91 in23.1 mm
05:09 PM 75.2°F24.0°C 58.5°F14.7°C 56% 9.2 mph SW14.8 kmh SW 15.9 mph25.6 kmh 29.79 in1008.8 mb 0.00 in0.0 mm 0.00 in0.0 mm 0.91 in23.1 mm
05:15 PM 75.7°F24.3°C 58.5°F14.7°C 55% 13.0 mph 20.9 kmh 15.2 mph24.5 kmh 29.78 in1008.5 mb 0.00 in0.0 mm 0.00 in0.0 mm 0.91 in23.1 mm
05:20 PM 76.1°F24.5°C 59.2°F15.1°C 56% 12.1 mph SW19.5 kmh SW 15.2 mph24.5 kmh 29.79 in1008.8 mb 0.00 in0.0 mm 0.00 in0.0 mm 0.91 in23.1 mm
05:25 PM 75.9°F24.4°C 58.6°F14.8°C 55% 7.6 mph S12.2 kmh S 15.2 mph24.5 kmh 29.79 in1008.8 mb 0.00 in0.0 mm 0.00 in0.0 mm 0.91 in23.1 mm
05:30 PM 76.6°F24.8°C 59.2°F15.1°C 55% 6.9 mph S11.1 kmh S 13.6 mph21.9 kmh 29.78 in1008.5 mb 0.00 in0.0 mm 0.00 in0.0 mm 0.91 in23.1 mm
05:35 PM 76.6°F24.8°C 58.8°F14.9°C 54% 8.3 mph S13.4 kmh S 14.5 mph23.3 kmh 29.79 in1008.8 mb 0.00 in0.0 mm 0.00 in0.0 mm 0.91 in23.1 mm
05:40 PM 77.0°F25.0°C 58.1°F14.5°C 52% 7.6 mph S12.2 kmh S 15.2 mph24.5 kmh 29.79 in1008.8 mb 0.00 in0.0 mm 0.00 in0.0 mm 0.91 in23.1 mm
05:46 PM 77.7°F25.4°C 58.6°F14.8°C 52% 11.4 mph SW18.3 kmh SW 13.6 mph21.9 kmh 29.79 in1008.8 mb 0.00 in0.0 mm 0.00 in0.0 mm 0.91 in23.1 mm
05:51 PM 77.5°F25.3°C 57.4°F14.1°C 50% 9.8 mph SW15.8 kmh SW 16.8 mph27.0 kmh 29.79 in1008.8 mb 0.00 in0.0 mm 0.00 in0.0 mm 0.91 in23.1 mm
05:56 PM 77.9°F25.5°C 58.3°F14.6°C 51% 8.3 mph S13.4 kmh S 12.1 mph19.5 kmh 29.79 in1008.8 mb 0.00 in0.0 mm 0.00 in0.0 mm 0.91 in23.1 mm
06:01 PM 77.7°F25.4°C 57.6°F14.2°C 50% 6.0 mph S9.7 kmh S 15.2 mph24.5 kmh 29.79 in1008.8 mb 0.00 in0.0 mm 0.00 in0.0 mm 0.91 in23.1 mm
06:06 PM 77.7°F25.4°C 57.6°F14.2°C 50% 8.3 mph SW13.4 kmh SW 15.2 mph24.5 kmh 29.80 in1009.1 mb 0.00 in0.0 mm 0.00 in0.0 mm 0.91 in23.1 mm
06:11 PM 77.9°F25.5°C 56.7°F13.7°C 48% 9.8 mph SW15.8 kmh SW 15.9 mph25.6 kmh 29.80 in1009.1 mb 0.00 in0.0 mm 0.00 in0.0 mm 0.91 in23.1 mm
06:17 PM 77.9°F25.5°C 56.7°F13.7°C 48% 8.3 mph SW13.4 kmh SW 13.6 mph21.9 kmh 29.80 in1009.1 mb 0.00 in0.0 mm 0.00 in0.0 mm 0.91 in23.1 mm
06:22 PM 77.9°F25.5°C 56.7°F13.7°C 48% 8.3 mph SW13.4 kmh SW 14.5 mph23.3 kmh 29.80 in1009.1 mb 0.00 in0.0 mm 0.00 in0.0 mm 0.91 in23.1 mm
06:27 PM 77.9°F25.5°C 57.2°F14.0°C 49% 6.0 mph SW9.7 kmh SW 10.7 mph17.2 kmh 29.81 in1009.5 mb 0.00 in0.0 mm 0.00 in0.0 mm 0.91 in23.1 mm
06:32 PM 77.9°F25.5°C 56.7°F13.7°C 48% 6.9 mph SW11.1 kmh SW 10.7 mph17.2 kmh 29.80 in1009.1 mb 0.00 in0.0 mm 0.00 in0.0 mm 0.91 in23.1 mm
06:37 PM 77.9°F25.5°C 56.1°F13.4°C 47% 5.4 mph SW8.7 kmh SW 9.8 mph15.8 kmh 29.80 in1009.1 mb 0.00 in0.0 mm 0.00 in0.0 mm 0.91 in23.1 mm
06:42 PM 77.9°F25.5°C 55.4°F13.0°C 46% 6.0 mph SW9.7 kmh SW 13.0 mph20.9 kmh 29.81 in1009.5 mb 0.00 in0.0 mm 0.00 in0.0 mm 0.91 in23.1 mm
06:48 PM 77.9°F25.5°C 55.4°F13.0°C 46% 4.5 mph SW7.2 kmh SW 13.0 mph20.9 kmh 29.81 in1009.5 mb 0.00 in0.0 mm 0.00 in0.0 mm 0.91 in23.1 mm
06:53 PM 77.9°F25.5°C 54.9°F12.7°C 45% 4.5 mph SW7.2 kmh SW 9.2 mph14.8 kmh 29.81 in1009.5 mb 0.00 in0.0 mm 0.00 in0.0 mm 0.91 in23.1 mm
06:58 PM 77.9°F25.5°C 54.9°F12.7°C 45% 5.4 mph S8.7 kmh S 9.8 mph15.8 kmh 29.82 in1009.8 mb 0.00 in0.0 mm 0.00 in0.0 mm 0.91 in23.1 mm
07:03 PM 77.9°F25.5°C 54.9°F12.7°C 45% 4.5 mph WSW7.2 kmh WSW 8.3 mph13.4 kmh 29.82 in1009.8 mb 0.00 in0.0 mm 0.00 in0.0 mm 0.91 in23.1 mm
07:08 PM 77.9°F25.5°C 54.9°F12.7°C 45% 2.2 mph WSW3.5 kmh WSW 7.6 mph12.2 kmh 29.82 in1009.8 mb 0.00 in0.0 mm 0.00 in0.0 mm 0.91 in23.1 mm
07:13 PM 77.7°F25.4°C 55.2°F12.9°C 46% 5.4 mph SW8.7 kmh SW 6.9 mph11.1 kmh 29.82 in1009.8 mb 0.00 in0.0 mm 0.00 in0.0 mm 0.91 in23.1 mm
07:19 PM 77.5°F25.3°C 55.0°F12.8°C 46% 4.5 mph SW7.2 kmh SW 6.9 mph11.1 kmh 29.83 in1010.2 mb 0.00 in0.0 mm 0.00 in0.0 mm 0.91 in23.1 mm
07:24 PM 77.4°F25.2°C 55.0°F12.8°C 46% 3.1 mph SW5.0 kmh SW 6.0 mph9.7 kmh 29.83 in1010.2 mb 0.00 in0.0 mm 0.00 in0.0 mm 0.91 in23.1 mm
07:29 PM 77.0°F25.0°C 55.2°F12.9°C 47% 1.6 mph W2.6 kmh W 6.0 mph9.7 kmh 29.83 in1010.2 mb 0.00 in0.0 mm 0.00 in0.0 mm 0.91 in23.1 mm
07:34 PM 76.6°F24.8°C 54.9°F12.7°C 47% 3.1 mph W5.0 kmh W 6.0 mph9.7 kmh 29.83 in1010.2 mb 0.00 in0.0 mm 0.00 in0.0 mm 0.91 in23.1 mm
07:39 PM 76.3°F24.6°C 54.5°F12.5°C 47% 2.2 mph SE3.5 kmh SE 5.4 mph8.7 kmh 29.83 in1010.2 mb 0.00 in0.0 mm 0.00 in0.0 mm 0.91 in23.1 mm
07:44 PM 75.7°F24.3°C 52.9°F11.6°C 45% 2.2 mph SW3.5 kmh SW 5.4 mph8.7 kmh 29.84 in1010.5 mb 0.00 in0.0 mm 0.00 in0.0 mm 0.91 in23.1 mm
07:50 PM 75.0°F23.9°C 53.4°F11.9°C 47% 2.2 mph NW3.5 kmh NW 4.5 mph7.2 kmh 29.84 in1010.5 mb 0.00 in0.0 mm 0.00 in0.0 mm 0.91 in23.1 mm
07:55 PM 74.1°F23.4°C 52.5°F11.4°C 47% 2.2 mph SW3.5 kmh SW 3.8 mph6.1 kmh 29.84 in1010.5 mb 0.00 in0.0 mm 0.00 in0.0 mm 0.91 in23.1 mm
08:00 PM 73.2°F22.9°C 52.3°F11.3°C 48% 2.2 mph SW3.5 kmh SW 3.8 mph6.1 kmh 29.85 in1010.8 mb 0.00 in0.0 mm 0.00 in0.0 mm 0.91 in23.1 mm
08:05 PM 72.1°F22.3°C 52.0°F11.1°C 49% 3.1 mph SW5.0 kmh SW 3.8 mph6.1 kmh 29.85 in1010.8 mb 0.00 in0.0 mm 0.00 in0.0 mm 0.91 in23.1 mm
08:10 PM 71.2°F21.8°C 51.6°F10.9°C 50% 3.1 mph SW5.0 kmh SW 4.5 mph7.2 kmh 29.85 in1010.8 mb 0.00 in0.0 mm 0.00 in0.0 mm 0.91 in23.1 mm
08:15 PM 70.7°F21.5°C 51.1°F10.6°C 50% 3.8 mph SW6.1 kmh SW 4.5 mph7.2 kmh 29.85 in1010.8 mb 0.00 in0.0 mm 0.00 in0.0 mm 0.91 in23.1 mm
08:21 PM 70.3°F21.3°C 51.4°F10.8°C 51% 3.8 mph S6.1 kmh S 5.4 mph8.7 kmh 29.85 in1010.8 mb 0.00 in0.0 mm 0.00 in0.0 mm 0.91 in23.1 mm
08:26 PM 69.8°F21.0°C 51.4°F10.8°C 52% 3.1 mph SW5.0 kmh SW 5.4 mph8.7 kmh 29.86 in1011.2 mb 0.00 in0.0 mm 0.00 in0.0 mm 0.91 in23.1 mm
08:31 PM 69.6°F20.9°C 52.2°F11.2°C 54% 4.5 mph SW7.2 kmh SW 6.9 mph11.1 kmh 29.86 in1011.2 mb 0.00 in0.0 mm 0.00 in0.0 mm 0.91 in23.1 mm
08:36 PM 69.6°F20.9°C 51.8°F11.0°C 53% 3.8 mph SW6.1 kmh SW 6.9 mph11.1 kmh 29.86 in1011.2 mb 0.00 in0.0 mm 0.00 in0.0 mm 0.91 in23.1 mm
08:41 PM 69.6°F20.9°C 51.3°F10.7°C 52% 7.6 mph SW12.2 kmh SW 9.8 mph15.8 kmh 29.87 in1011.5 mb 0.00 in0.0 mm 0.00 in0.0 mm 0.91 in23.1 mm
08:47 PM 69.6°F20.9°C 50.2°F10.1°C 50% 4.5 mph SE7.2 kmh SE 11.4 mph18.3 kmh 29.87 in1011.5 mb 0.00 in0.0 mm 0.00 in0.0 mm 0.91 in23.1 mm
08:52 PM 69.6°F20.9°C 49.6°F9.8°C 49% 6.0 mph SW9.7 kmh SW 13.0 mph20.9 kmh 29.88 in1011.9 mb 0.00 in0.0 mm 0.00 in0.0 mm 0.91 in23.1 mm
08:57 PM 69.6°F20.9°C 48.6°F9.2°C 47% 6.0 mph SW9.7 kmh SW 13.6 mph21.9 kmh 29.88 in1011.9 mb 0.00 in0.0 mm 0.00 in0.0 mm 0.91 in23.1 mm
09:02 PM 69.6°F20.9°C 48.6°F9.2°C 47% 5.4 mph SW8.7 kmh SW 11.4 mph18.3 kmh 29.88 in1011.9 mb 0.00 in0.0 mm 0.00 in0.0 mm 0.91 in23.1 mm
09:07 PM 68.9°F20.5°C 48.4°F9.1°C 48% 5.4 mph SW8.7 kmh SW 9.2 mph14.8 kmh 29.89 in1012.2 mb 0.00 in0.0 mm 0.00 in0.0 mm 0.91 in23.1 mm
09:12 PM 68.5°F20.3°C 48.6°F9.2°C 49% 8.3 mph SW13.4 kmh SW 10.7 mph17.2 kmh 29.90 in1012.5 mb 0.00 in0.0 mm 0.00 in0.0 mm 0.91 in23.1 mm
09:18 PM 68.0°F20.0°C 48.2°F9.0°C 49% 5.4 mph W8.7 kmh W 9.8 mph15.8 kmh 29.90 in1012.5 mb 0.00 in0.0 mm 0.00 in0.0 mm 0.91 in23.1 mm
09:23 PM 67.6°F19.8°C 48.9°F9.4°C 51% 4.5 mph SSW7.2 kmh SSW 9.2 mph14.8 kmh 29.91 in1012.9 mb 0.00 in0.0 mm 0.00 in0.0 mm 0.91 in23.1 mm
09:28 PM 67.3°F19.6°C 48.6°F9.2°C 51% 5.4 mph SW8.7 kmh SW 9.8 mph15.8 kmh 29.91 in1012.9 mb 0.00 in0.0 mm 0.00 in0.0 mm 0.91 in23.1 mm
09:33 PM 67.1°F19.5°C 48.4°F9.1°C 51% 5.4 mph SW8.7 kmh SW 9.2 mph14.8 kmh 29.91 in1012.9 mb 0.00 in0.0 mm 0.00 in0.0 mm 0.91 in23.1 mm
09:38 PM 66.7°F19.3°C 48.0°F8.9°C 51% 6.0 mph S9.7 kmh S 9.2 mph14.8 kmh 29.91 in1012.9 mb 0.00 in0.0 mm 0.00 in0.0 mm 0.91 in23.1 mm
09:43 PM 66.6°F19.2°C 47.8°F8.8°C 51% 6.9 mph S11.1 kmh S 10.7 mph17.2 kmh 29.92 in1013.2 mb 0.00 in0.0 mm 0.00 in0.0 mm 0.91 in23.1 mm
09:49 PM 66.6°F19.2°C 47.8°F8.8°C 51% 4.5 mph SW7.2 kmh SW 9.2 mph14.8 kmh 29.93 in1013.5 mb 0.00 in0.0 mm 0.00 in0.0 mm 0.91 in23.1 mm
09:54 PM 66.2°F19.0°C 48.0°F8.9°C 52% 5.4 mph S8.7 kmh S 8.3 mph13.4 kmh 29.93 in1013.5 mb 0.00 in0.0 mm 0.00 in0.0 mm 0.91 in23.1 mm
10:04 PM 65.5°F18.6°C 47.8°F8.8°C 53% 4.5 mph S7.2 kmh S 8.3 mph13.4 kmh 29.93 in1013.5 mb 0.00 in0.0 mm 0.00 in0.0 mm 0.91 in23.1 mm
10:09 PM 65.1°F18.4°C 47.5°F8.6°C 53% 3.1 mph SW5.0 kmh SW 8.3 mph13.4 kmh 29.93 in1013.5 mb 0.00 in0.0 mm 0.00 in0.0 mm 0.91 in23.1 mm
10:14 PM 64.8°F18.2°C 47.7°F8.7°C 54% 4.5 mph SW7.2 kmh SW 8.3 mph13.4 kmh 29.93 in1013.5 mb 0.00 in0.0 mm 0.00 in0.0 mm 0.91 in23.1 mm
10:20 PM 64.6°F18.1°C 47.5°F8.6°C 54% 3.8 mph S6.1 kmh S 6.9 mph11.1 kmh 29.93 in1013.5 mb 0.00 in0.0 mm 0.00 in0.0 mm 0.91 in23.1 mm
10:25 PM 64.4°F18.0°C 47.5°F8.6°C 54% 3.1 mph SW5.0 kmh SW 6.9 mph11.1 kmh 29.94 in1013.9 mb 0.00 in0.0 mm 0.00 in0.0 mm 0.91 in23.1 mm
10:30 PM 64.0°F17.8°C 47.5°F8.6°C 55% 4.5 mph SW7.2 kmh SW 6.0 mph9.7 kmh 29.94 in1013.9 mb 0.00 in0.0 mm 0.00 in0.0 mm 0.91 in23.1 mm
10:35 PM 63.9°F17.7°C 47.3°F8.5°C 55% 3.8 mph SW6.1 kmh SW 6.0 mph9.7 kmh 29.94 in1013.9 mb 0.00 in0.0 mm 0.00 in0.0 mm 0.91 in23.1 mm
10:40 PM 63.5°F17.5°C 47.1°F8.4°C 55% 3.8 mph SW6.1 kmh SW 5.4 mph8.7 kmh 29.95 in1014.2 mb 0.00 in0.0 mm 0.00 in0.0 mm 0.91 in23.1 mm
10:45 PM 63.1°F17.3°C 47.1°F8.4°C 56% 4.5 mph S7.2 kmh S 5.4 mph8.7 kmh 29.95 in1014.2 mb 0.00 in0.0 mm 0.00 in0.0 mm 0.91 in23.1 mm
10:51 PM 63.0°F17.2°C 46.9°F8.3°C 56% 4.5 mph SW7.2 kmh SW 6.0 mph9.7 kmh 29.95 in1014.2 mb 0.00 in0.0 mm 0.00 in0.0 mm 0.91 in23.1 mm
10:56 PM 63.0°F17.2°C 46.9°F8.3°C 56% 3.8 mph SW6.1 kmh SW 6.9 mph11.1 kmh 29.95 in1014.2 mb 0.00 in0.0 mm 0.00 in0.0 mm 0.91 in23.1 mm
11:01 PM 62.8°F17.1°C 46.4°F8.0°C 55% 3.1 mph SW5.0 kmh SW 6.9 mph11.1 kmh 29.95 in1014.2 mb 0.00 in0.0 mm 0.00 in0.0 mm 0.91 in23.1 mm
11:06 PM 62.6°F17.0°C 46.8°F8.2°C 56% 3.1 mph S5.0 kmh S 6.9 mph11.1 kmh 29.95 in1014.2 mb 0.00 in0.0 mm 0.00 in0.0 mm 0.91 in23.1 mm
11:11 PM 62.2°F16.8°C 46.8°F8.2°C 57% 2.2 mph SW3.5 kmh SW 4.5 mph7.2 kmh 29.96 in1014.6 mb 0.00 in0.0 mm 0.00 in0.0 mm 0.91 in23.1 mm
11:16 PM 61.7°F16.5°C 46.8°F8.2°C 58% 2.2 mph SW3.5 kmh SW 3.8 mph6.1 kmh 29.95 in1014.2 mb 0.00 in0.0 mm 0.00 in0.0 mm 0.91 in23.1 mm
11:22 PM 61.5°F16.4°C 46.6°F8.1°C 58% 3.1 mph SW5.0 kmh SW 5.4 mph8.7 kmh 29.95 in1014.2 mb 0.00 in0.0 mm 0.00 in0.0 mm 0.91 in23.1 mm
11:27 PM 61.3°F16.3°C 46.4°F8.0°C 58% 3.1 mph SW5.0 kmh SW 5.4 mph8.7 kmh 29.95 in1014.2 mb 0.00 in0.0 mm 0.00 in0.0 mm 0.91 in23.1 mm
11:32 PM 61.2°F16.2°C 46.8°F8.2°C 59% 3.1 mph SW5.0 kmh SW 4.5 mph7.2 kmh 29.95 in1014.2 mb 0.00 in0.0 mm 0.00 in0.0 mm 0.91 in23.1 mm
11:37 PM 61.2°F16.2°C 46.8°F8.2°C 59% 2.2 mph SW3.5 kmh SW 4.5 mph7.2 kmh 29.95 in1014.2 mb 0.00 in0.0 mm 0.00 in0.0 mm 0.91 in23.1 mm
11:42 PM 61.0°F16.1°C 46.6°F8.1°C 59% 1.6 mph SW2.6 kmh SW 4.5 mph7.2 kmh 29.95 in1014.2 mb 0.00 in0.0 mm 0.00 in0.0 mm 0.91 in23.1 mm
11:47 PM 60.8°F16.0°C 46.4°F8.0°C 59% 3.1 mph SW5.0 kmh SW 4.5 mph7.2 kmh 29.95 in1014.2 mb 0.00 in0.0 mm 0.00 in0.0 mm 0.91 in23.1 mm
11:53 PM 60.6°F15.9°C 46.6°F8.1°C 60% 2.2 mph SW3.5 kmh SW 5.4 mph8.7 kmh 29.95 in1014.2 mb 0.00 in0.0 mm 0.00 in0.0 mm 0.91 in23.1 mm
11:58 PM 60.3°F15.7°C 46.8°F8.2°C 61% 1.6 mph SW2.6 kmh SW 3.8 mph6.1 kmh 29.95 in1014.2 mb 0.00 in0.0 mm 0.00 in0.0 mm 0.91 in23.1 mm